ADDS METAR Data INFO
IDs: Format: Raw Decoded Include TAF

Data at: 0350 UTC 18 Oct 2017

K46D 180335Z AUTO 22014G20KT 10SM CLR 15/M01 A2964 RMK AO2
K46D 180315Z AUTO 21015KT 10SM CLR 14/M01 A2964 RMK AO2
K46D 180255Z AUTO 22012KT 10SM CLR 15/M01 A2965 RMK AO2
K46D 180235Z AUTO 22012KT 7SM CLR 13/M01 A2965 RMK AO2
K46D 180215Z AUTO 20010KT 8SM CLR 12/M00 A2966 RMK AO2
K46D 180155Z AUTO 19011KT 10SM CLR 11/00 A2967 RMK AO2
K46D 180135Z AUTO 19010KT 10SM CLR 14/M00 A2967 RMK AO2
K46D 180115Z AUTO 20011KT 10SM CLR 13/01 A2969 RMK AO2
K46D 180055Z AUTO 20010KT 10SM CLR 12/01 A2969 RMK AO2
K46D 180035Z AUTO 19011KT 10SM CLR 14/01 A2969 RMK AO2
K46D 180015Z AUTO 19007KT 10SM CLR 13/02 A2970 RMK AO2
K46D 172355Z AUTO 20009KT 7SM CLR 16/01 A2970 RMK AO2
K46D 172335Z AUTO 19009KT 9SM CLR 17/01 A2971 RMK AO2
K46D 172315Z AUTO 20007KT 10SM CLR 20/02 A2971 RMK AO2
K46D 172255Z AUTO 22008KT 10SM CLR 22/01 A2972 RMK AO2
K46D 172235Z AUTO 23010G15KT 10SM CLR 23/M00 A2973 RMK AO2
K46D 172215Z AUTO 22010G16KT 10SM CLR 23/M00 A2973 RMK AO2
K46D 172155Z AUTO 23014G20KT 10SM CLR 24/M01 A2974 RMK AO2
K46D 172135Z AUTO 23015G21KT 10SM CLR 24/M01 A2975 RMK AO2
K46D 172115Z AUTO 23013KT 10SM CLR 24/M00 A2976 RMK AO2
K46D 172055Z AUTO 24012G18KT 10SM CLR 23/M00 A2977 RMK AO2
K46D 172035Z AUTO 25009G15KT 10SM CLR 23/M00 A2978 RMK AO2
K46D 172015Z AUTO 24010KT 210V270 9SM CLR 23/M00 A2978 RMK AO2
K46D 171955Z AUTO 25009G15KT 10SM CLR 23/M00 A2979 RMK AO2
K46D 171935Z AUTO 24012KT 10SM CLR 23/M00 A2980 RMK AO2
K46D 171915Z AUTO 25011KT 10SM CLR 23/M00 A2980 RMK AO2
K46D 171855Z AUTO 24012G17KT 10SM CLR 22/M00 A2981 RMK AO2
K46D 171835Z AUTO 23010G17KT 10SM CLR 22/M00 A2982 RMK AO2
K46D 171815Z AUTO 25011G18KT 10SM CLR 21/00 A2983 RMK AO2
K46D 171755Z AUTO 24010G16KT 10SM CLR 20/00 A2984 RMK AO2
K46D 171735Z AUTO 25010G17KT 10SM CLR 19/01 A2985 RMK AO2
K46D 171715Z AUTO 23012G18KT 10SM CLR 18/01 A2985 RMK AO2
K46D 171655Z AUTO 24011G16KT 10SM CLR 18/01 A2986 RMK AO2
K46D 171635Z AUTO 23013G20KT 10SM CLR 16/01 A2986 RMK AO2
K46D 171615Z AUTO 23011KT 10SM CLR 15/01 A2987 RMK AO2
K46D 171555Z AUTO 23009G15KT 10SM CLR 15/00 A2987 RMK AO2
K46D 171535Z AUTO 23013G19KT 10SM CLR 15/00 A2987 RMK AO2
K46D 171515Z AUTO 23015G21KT 10SM CLR 15/M00 A2987 RMK AO2
K46D 171455Z AUTO 23013G18KT 10SM CLR 15/00 A2987 RMK AO2
K46D 171435Z AUTO 23010G17KT 10SM CLR 14/01 A2987 RMK AO2
K46D 171415Z AUTO 23011KT 10SM CLR 13/01 A2988 RMK AO2
K46D 171355Z AUTO 22009KT 10SM CLR 10/01 A2988 RMK AO2
K46D 171335Z AUTO 22009KT 10SM CLR 08/01 A2988 RMK AO2
K46D 171315Z AUTO 21007KT 10SM CLR 07/01 A2988 RMK AO2
K46D 171255Z AUTO 21010KT 10SM CLR 08/01 A2989 RMK AO2
K46D 171235Z AUTO 21008KT 10SM CLR 06/01 A2990 RMK AO2
K46D 171215Z AUTO 23010KT 10SM CLR 07/01 A2991 RMK AO2
K46D 171155Z AUTO 21008KT 10SM CLR 04/01 A2991 RMK AO2
K46D 171135Z AUTO 22008KT 10SM CLR 05/01 A2991 RMK AO2
K46D 171115Z AUTO 21006KT 10SM CLR 04/M00 A2992 RMK AO2
K46D 171055Z AUTO 00000KT 10SM CLR 04/00 A2992 RMK AO2
K46D 171035Z AUTO 23008KT 10SM CLR 04/00 A2993 RMK AO2
K46D 171015Z AUTO 22006KT 10SM CLR 05/00 A2993 RMK AO2
K46D 170955Z AUTO 23007KT 10SM CLR 08/01 A2994 RMK AO2
K46D 170935Z AUTO 25008KT 10SM CLR 07/01 A2993 RMK AO2
K46D 170915Z AUTO 23007KT 10SM CLR 07/01 A2993 RMK AO2
K46D 170855Z AUTO 24007KT 10SM CLR 07/01 A2994 RMK AO2
K46D 170835Z AUTO 24006KT 10SM CLR 06/01 A2994 RMK AO2
K46D 170815Z AUTO 25006KT 10SM CLR 05/01 A2995 RMK AO2
K46D 170755Z AUTO 25006KT 10SM CLR 05/01 A2995 RMK AO2
K46D 170735Z AUTO 25007KT 10SM CLR 05/01 A2995 RMK AO2
K46D 170715Z AUTO 25005KT 10SM CLR 07/01 A2995 RMK AO2
K46D 170655Z AUTO 25006KT 10SM CLR 05/01 A2995 RMK AO2
K46D 170635Z AUTO 25007KT 10SM CLR 05/01 A2995 RMK AO2
K46D 170615Z AUTO 25007KT 10SM CLR 06/01 A2995 RMK AO2
K46D 170555Z AUTO 26009KT 10SM CLR 04/00 A2995 RMK AO2
K46D 170535Z AUTO 26008KT 10SM CLR 06/01 A2995 RMK AO2
K46D 170515Z AUTO 26009KT 10SM CLR 05/01 A2995 RMK AO2
K46D 170455Z AUTO 24009KT 10SM CLR 06/01 A2996 RMK AO2
K46D 170435Z AUTO 25007KT 10SM CLR 06/01 A2996 RMK AO2
K46D 170415Z AUTO 26007KT 10SM CLR 07/01 A2995 RMK AO2
K46D 170355Z AUTO 25006KT 10SM CLR 06/01 A2995 RMK AO2
K46D 170335Z AUTO 25007KT 10SM CLR 07/01 A2996 RMK AO2
K46D 170315Z AUTO 25007KT 10SM CLR 08/01 A2996 RMK AO2
K46D 170255Z AUTO 25006KT 10SM CLR 07/00 A2995 RMK AO2
K46D 170235Z AUTO 25006KT 10SM CLR 08/00 A2995 RMK AO2
K46D 170215Z AUTO 27008KT 10SM CLR 07/00 A2995 RMK AO2
K46D 170155Z AUTO 26008KT 10SM CLR 08/00 A2994 RMK AO2
K46D 170135Z AUTO 28008KT 10SM CLR 09/00 A2994 RMK AO2
K46D 170115Z AUTO 27009KT 10SM CLR 09/00 A2994 RMK AO2
K46D 170055Z AUTO 26008KT 10SM CLR 11/00 A2993 RMK AO2
K46D 170035Z AUTO 25006KT 10SM CLR 12/00 A2993 RMK AO2
K46D 170015Z AUTO 27006KT 10SM CLR 13/01 A2993 RMK AO2
K46D 162355Z AUTO 27006KT 10SM CLR 15/00 A2992 RMK AO2
K46D 162335Z AUTO 30008KT 10SM CLR 16/00 A2992 RMK AO2
K46D 162315Z AUTO 29011KT 10SM CLR 18/00 A2992 RMK AO2
K46D 162255Z AUTO 30011G17KT 10SM CLR 19/M00 A2991 RMK AO2
K46D 162235Z AUTO 29013G20KT 10SM CLR 19/M00 A2990 RMK AO2
K46D 162215Z AUTO 29012G19KT 10SM CLR 20/M00 A2990 RMK AO2
K46D 162155Z AUTO 29015G22KT 10SM CLR 20/M00 A2990 RMK AO2
K46D 162135Z AUTO 29019G25KT 10SM CLR 20/01 A2990 RMK AO2
K46D 162115Z AUTO 29016G23KT 10SM CLR 21/01 A2990 RMK AO2
K46D 162055Z AUTO 29018G24KT 10SM CLR 21/01 A2989 RMK AO2
K46D 162035Z AUTO 29019G29KT 10SM CLR 21/00 A2989 RMK AO2
K46D 162015Z AUTO 27019G27KT 10SM CLR 21/01 A2989 RMK AO2
K46D 161955Z AUTO 29018G25KT 10SM CLR 21/01 A2989 RMK AO2
K46D 161935Z AUTO 29018KT 10SM CLR 21/02 A2990 RMK AO2
K46D 161915Z AUTO 28018KT 10SM CLR 20/01 A2990 RMK AO2
K46D 161855Z AUTO 28018G24KT 10SM CLR 20/01 A2991 RMK AO2
K46D 161835Z AUTO 28016G22KT 10SM CLR 20/02 A2992 RMK AO2
K46D 161815Z AUTO 26018G24KT 10SM CLR 19/01 A2992 RMK AO2
K46D 161755Z AUTO 24013G19KT 10SM CLR 18/01 A2992 RMK AO2
K46D 161735Z AUTO 24014G23KT 10SM CLR 17/01 A2992 RMK AO2
K46D 161715Z AUTO 26014G22KT 10SM CLR 16/01 A2993 RMK AO2
K46D 161655Z AUTO 23014G23KT 10SM CLR 15/01 A2993 RMK AO2
K46D 161635Z AUTO 23015G21KT 10SM CLR 14/01 A2994 RMK AO2
K46D 161615Z AUTO 24013G22KT 10SM CLR 14/00 A2994 RMK AO2
K46D 161555Z AUTO 24011G19KT 10SM CLR 13/00 A2996 RMK AO2